createdAt,value
2023-01-18T00:01:03.578Z,95793.53
2023-01-18T00:03:33.620Z,95791.75
2023-01-18T00:06:05.489Z,95790.09
2023-01-18T00:08:34.234Z,95795.09
2023-01-18T00:11:11.717Z,95790.72
2023-01-18T00:13:38.527Z,95788.03
2023-01-18T00:16:11.939Z,95784.63
2023-01-18T00:18:38.740Z,95790.63
2023-01-18T00:21:09.846Z,95789.72
2023-01-18T00:23:37.195Z,95785.47
2023-01-18T00:26:06.890Z,95795.78
2023-01-18T00:28:33.584Z,95791.53
2023-01-18T00:31:00.254Z,95793.25
2023-01-18T00:33:26.953Z,95789.84
2023-01-18T00:36:01.430Z,95793.22
2023-01-18T00:38:29.420Z,95800.88
2023-01-18T00:40:56.652Z,95797.31
2023-01-18T00:43:38.938Z,95803.22
2023-01-18T00:46:14.107Z,95799.84
2023-01-18T00:48:42.547Z,95792.84
2023-01-18T00:51:12.267Z,95801.34
2023-01-18T00:53:39.347Z,95797.75
2023-01-18T00:56:11.024Z,95795.94
2023-01-18T00:58:37.956Z,95799.34
2023-01-18T01:01:06.258Z,95805.25
2023-01-18T01:03:52.930Z,95811.19
2023-01-18T01:06:47.377Z,95814.56
2023-01-18T01:09:19.709Z,95806.72
2023-01-18T01:12:06.125Z,95807.56
2023-01-18T01:14:53.628Z,95816.94
2023-01-18T01:17:39.011Z,95808.28
2023-01-18T01:20:25.644Z,95818.50
2023-01-18T01:23:10.787Z,95821.84
2023-01-18T01:25:56.793Z,95819.28
2023-01-18T01:28:23.439Z,95827.00
2023-01-18T01:30:50.069Z,95829.56
2023-01-18T01:33:18.123Z,95821.00
2023-01-18T01:35:44.782Z,95826.06
2023-01-18T01:38:11.470Z,95829.53
2023-01-18T01:40:38.119Z,95828.63
2023-01-18T01:43:06.184Z,95830.34
2023-01-18T01:45:32.989Z,95824.31
2023-01-18T01:48:00.009Z,95820.84
2023-01-18T01:50:39.639Z,95817.34
2023-01-18T01:53:07.251Z,95813.81
2023-01-18T01:55:38.053Z,95818.06
2023-01-18T01:58:12.570Z,95809.47
2023-01-18T02:00:39.892Z,95819.69
2023-01-18T02:03:09.858Z,95816.19
2023-01-18T02:06:01.702Z,95801.50
2023-01-18T02:08:28.592Z,95814.47
2023-01-18T02:10:55.381Z,95817.03
2023-01-18T02:13:24.433Z,95818.72
2023-01-18T02:16:11.145Z,95823.06
2023-01-18T02:19:03.484Z,95824.72
2023-01-18T02:21:58.892Z,95839.47
2023-01-18T02:24:58.817Z,95827.56
2023-01-18T02:27:32.056Z,95835.41
2023-01-18T02:30:07.885Z,95833.63
2023-01-18T02:33:08.979Z,95824.03
2023-01-18T02:35:52.479Z,95836.91
2023-01-18T02:38:26.519Z,95828.31
2023-01-18T02:41:11.887Z,95822.31
2023-01-18T02:44:00.211Z,95827.38
2023-01-18T02:46:31.404Z,95830.91
2023-01-18T02:48:58.734Z,95824.81
2023-01-18T02:51:25.571Z,95830.84
2023-01-18T02:53:52.370Z,95829.97
2023-01-18T02:56:28.654Z,95826.50
2023-01-18T02:58:59.013Z,95832.50
2023-01-18T03:01:31.967Z,95832.50
2023-01-18T03:04:08.014Z,95830.81
2023-01-18T03:06:35.293Z,95834.13
2023-01-18T03:09:02.803Z,95839.25
2023-01-18T03:11:42.249Z,95835.97
2023-01-18T03:14:36.625Z,95841.91
2023-01-18T03:17:21.199Z,95835.88
2023-01-18T03:20:07.880Z,95839.06
2023-01-18T03:23:05.572Z,95850.38
2023-01-18T03:25:39.148Z,95847.81
2023-01-18T03:28:28.109Z,95844.41
2023-01-18T03:31:17.899Z,95849.44
2023-01-18T03:33:50.606Z,95840.84
2023-01-18T03:36:30.795Z,95854.66
2023-01-18T03:39:07.873Z,95847.75
2023-01-18T03:41:39.911Z,95852.91
2023-01-18T03:44:12.269Z,95851.06
2023-01-18T03:46:40.583Z,95852.91
2023-01-18T03:49:08.222Z,95856.38
2023-01-18T03:51:47.562Z,95849.53
2023-01-18T03:54:29.024Z,95859.84
2023-01-18T03:57:08.430Z,95864.13
2023-01-18T03:59:38.355Z,95865.84
2023-01-18T04:02:06.408Z,95872.72
2023-01-18T04:04:33.245Z,95871.00
2023-01-18T04:06:59.978Z,95871.88
2023-01-18T04:09:26.857Z,95868.50
2023-01-18T04:11:54.094Z,95871.06
2023-01-18T04:14:20.992Z,95866.72
2023-01-18T04:16:47.688Z,95866.81
2023-01-18T04:19:14.273Z,95861.69
2023-01-18T04:21:40.926Z,95865.03
2023-01-18T04:24:07.796Z,95859.88
2023-01-18T04:26:34.447Z,95866.81
2023-01-18T04:29:01.904Z,95870.25
2023-01-18T04:31:28.996Z,95867.66
2023-01-18T04:33:55.686Z,95874.59
2023-01-18T04:36:22.443Z,95882.25
2023-01-18T04:38:54.323Z,95881.34
2023-01-18T04:41:21.453Z,95879.59
2023-01-18T04:43:48.006Z,95873.56
2023-01-18T04:46:15.593Z,95873.56
2023-01-18T04:48:42.803Z,95877.88
2023-01-18T04:51:14.268Z,95880.50
2023-01-18T04:53:42.642Z,95878.72
2023-01-18T04:56:10.203Z,95886.47
2023-01-18T04:58:37.452Z,95879.50
2023-01-18T05:01:06.516Z,95885.66
2023-01-18T05:03:38.429Z,95888.19
2023-01-18T05:06:11.057Z,95894.16
2023-01-18T05:08:41.252Z,95884.72
2023-01-18T05:11:13.531Z,95881.31
2023-01-18T05:13:41.269Z,95894.16
2023-01-18T05:16:12.776Z,95897.59
2023-01-18T05:18:39.559Z,95893.38
2023-01-18T05:21:06.391Z,95898.41
2023-01-18T05:23:33.093Z,95900.91
2023-01-18T05:25:59.847Z,95895.78
2023-01-18T05:28:27.885Z,95906.03
2023-01-18T05:30:55.063Z,95906.91
2023-01-18T05:33:23.507Z,95907.72
2023-01-18T05:35:51.163Z,95909.41
2023-01-18T05:38:18.130Z,95915.34
2023-01-18T05:40:55.005Z,95914.34
2023-01-18T05:43:23.518Z,95917.91
2023-01-18T05:45:50.343Z,95919.66
2023-01-18T05:48:17.553Z,95931.63
2023-01-18T05:50:46.059Z,95926.47
2023-01-18T05:53:14.533Z,95937.59
2023-01-18T05:55:41.425Z,95938.41
2023-01-18T05:58:08.442Z,95941.81
2023-01-18T06:00:35.385Z,95950.41
2023-01-18T06:03:02.239Z,95946.91
2023-01-18T06:05:29.046Z,95949.38
2023-01-18T06:07:55.575Z,95953.75
2023-01-18T06:10:22.337Z,95952.03
2023-01-18T06:12:49.109Z,95958.91
2023-01-18T06:15:15.873Z,95953.69
2023-01-18T06:17:45.194Z,95959.69
2023-01-18T06:20:12.951Z,95968.19
2023-01-18T06:22:40.883Z,95969.09
2023-01-18T06:25:09.339Z,95972.56
2023-01-18T06:27:37.758Z,95971.69
2023-01-18T06:30:06.486Z,95973.28
2023-01-18T06:32:33.353Z,95969.03
2023-01-18T06:35:00.087Z,95976.72
2023-01-18T06:37:26.634Z,95981.00
2023-01-18T06:39:53.263Z,95981.00
2023-01-18T06:42:20.110Z,95992.13
2023-01-18T06:44:46.824Z,95993.91
2023-01-18T06:47:15.729Z,95998.16
2023-01-18T06:49:42.390Z,95995.56
2023-01-18T06:52:08.985Z,95996.41
2023-01-18T06:54:36.241Z,95999.88
2023-01-18T06:57:02.815Z,95995.69
2023-01-18T06:59:29.447Z,95998.06
2023-01-18T07:01:56.208Z,96000.59
2023-01-18T07:04:23.016Z,96008.19
2023-01-18T07:06:49.776Z,96018.53
2023-01-18T07:09:16.505Z,96025.41
2023-01-18T07:11:43.668Z,96029.66
2023-01-18T07:14:11.703Z,96033.91
2023-01-18T07:16:39.651Z,96032.28
2023-01-18T07:19:06.820Z,96031.22
2023-01-18T07:21:33.464Z,96030.41
2023-01-18T07:24:00.263Z,96040.72
2023-01-18T07:26:26.989Z,96049.31
2023-01-18T07:28:55.532Z,96046.91
2023-01-18T07:31:24.044Z,96056.22
2023-01-18T07:33:51.094Z,96058.78
2023-01-18T07:36:18.183Z,96055.28
2023-01-18T07:38:45.059Z,96063.09
2023-01-18T07:41:17.134Z,96063.00
2023-01-18T07:43:45.055Z,96060.22
2023-01-18T07:46:16.030Z,96069.59
2023-01-18T07:48:44.852Z,96065.22
2023-01-18T07:51:12.384Z,96069.53
2023-01-18T07:53:39.840Z,96071.09
2023-01-18T07:56:09.493Z,96074.56
2023-01-18T07:58:36.623Z,96078.94
2023-01-18T08:01:05.325Z,96082.16
2023-01-18T08:03:32.867Z,96079.44
2023-01-18T08:06:00.380Z,96077.88
2023-01-18T08:08:28.759Z,96092.34
2023-01-18T08:11:00.321Z,96081.13
2023-01-18T08:13:27.703Z,96090.59
2023-01-18T08:15:55.838Z,96090.78
2023-01-18T08:18:23.763Z,96099.31
2023-01-18T08:20:50.800Z,96095.84
2023-01-18T08:23:17.798Z,96100.00
2023-01-18T08:25:45.565Z,96101.66
2023-01-18T08:28:12.237Z,96099.03
2023-01-18T08:30:42.856Z,96110.13
2023-01-18T08:33:10.046Z,96112.66
2023-01-18T08:35:45.510Z,96118.63
2023-01-18T08:38:14.445Z,96123.81
2023-01-18T08:40:41.691Z,96126.25
2023-01-18T08:43:08.409Z,96128.00
2023-01-18T08:45:35.593Z,96131.34
2023-01-18T08:48:07.652Z,96142.50
2023-01-18T08:50:35.553Z,96150.97
2023-01-18T08:53:02.896Z,96152.78
2023-01-18T08:55:30.235Z,96157.75
2023-01-18T08:57:58.415Z,96149.19
2023-01-18T09:00:28.665Z,96159.56
2023-01-18T09:02:55.841Z,96148.22
2023-01-18T09:05:23.068Z,96159.38
2023-01-18T09:07:51.055Z,96161.94
2023-01-18T09:10:17.801Z,96169.56
2023-01-18T09:12:44.646Z,96179.91
2023-01-18T09:15:11.341Z,96181.53
2023-01-18T09:17:38.169Z,96172.94
2023-01-18T09:20:09.872Z,96185.09
2023-01-18T09:22:37.178Z,96190.44
2023-01-18T09:25:05.051Z,96188.59
2023-01-18T09:27:32.204Z,96187.47
2023-01-18T09:29:59.269Z,96191.00
2023-01-18T09:32:27.634Z,96197.72
2023-01-18T09:34:55.009Z,96203.78
2023-01-18T09:37:21.994Z,96207.88
2023-01-18T09:39:52.792Z,96215.81
2023-01-18T09:42:27.507Z,96212.00
2023-01-18T09:44:59.923Z,96209.41
2023-01-18T09:47:34.581Z,96215.34
2023-01-18T09:50:11.093Z,96215.28
2023-01-18T09:52:57.615Z,96222.34
2023-01-18T09:55:34.236Z,96220.41
2023-01-18T09:58:16.942Z,96221.06
2023-01-18T10:00:48.206Z,96222.78
2023-01-18T10:03:29.542Z,96219.38
2023-01-18T10:06:24.581Z,96217.56
2023-01-18T10:08:57.284Z,96228.13
2023-01-18T10:11:37.946Z,96232.09
2023-01-18T10:14:07.676Z,96230.19
2023-01-18T10:16:35.868Z,96230.06
2023-01-18T10:19:02.735Z,96228.19
2023-01-18T10:21:45.407Z,96231.72
2023-01-18T10:24:35.339Z,96231.31
2023-01-18T10:27:18.163Z,96234.66
2023-01-18T10:29:53.618Z,96225.63
2023-01-18T10:32:24.055Z,96231.78
2023-01-18T10:34:52.275Z,96234.75
2023-01-18T10:37:40.461Z,96237.03
2023-01-18T10:40:10.377Z,96245.91
2023-01-18T10:42:45.420Z,96256.88
2023-01-18T10:45:23.295Z,96252.81
2023-01-18T10:47:52.774Z,96254.94
2023-01-18T10:50:40.223Z,96261.78
2023-01-18T10:53:29.488Z,96257.59
2023-01-18T10:56:02.194Z,96269.31
2023-01-18T10:58:43.596Z,96266.91
2023-01-18T11:01:17.598Z,96264.88
2023-01-18T11:04:05.992Z,96266.81
2023-01-18T11:06:47.898Z,96276.94
2023-01-18T11:09:36.258Z,96278.53
2023-01-18T11:12:34.906Z,96280.00
2023-01-18T11:15:13.680Z,96282.44
2023-01-18T11:17:44.983Z,96294.31
2023-01-18T11:20:22.055Z,96291.84
2023-01-18T11:22:58.995Z,96286.91
2023-01-18T11:25:46.939Z,96293.50
2023-01-18T11:28:24.468Z,96289.13
2023-01-18T11:30:55.581Z,96290.97
2023-01-18T11:33:24.980Z,96293.97
2023-01-18T11:35:59.427Z,96290.16
2023-01-18T11:38:33.008Z,96288.94
2023-01-18T11:41:06.871Z,96288.47
2023-01-18T11:43:39.674Z,96297.75
2023-01-18T11:46:28.875Z,96301.94
2023-01-18T11:49:23.509Z,96308.50
2023-01-18T11:52:02.098Z,96307.53
2023-01-18T11:54:33.384Z,96307.81
2023-01-18T11:57:03.285Z,96312.09
2023-01-18T11:59:38.209Z,96319.06
2023-01-18T12:02:45.662Z,96323.41
2023-01-18T12:05:28.790Z,96322.63
2023-01-18T12:08:27.125Z,96326.03
2023-01-18T12:11:15.118Z,96325.00
2023-01-18T12:13:47.703Z,96320.69
2023-01-18T12:16:23.145Z,96334.84
2023-01-18T12:19:17.743Z,96333.91
2023-01-18T12:22:25.483Z,96339.47
2023-01-18T12:25:30.034Z,96343.34
2023-01-18T12:28:20.499Z,96350.53
2023-01-18T12:31:03.325Z,96348.91
2023-01-18T12:34:02.482Z,96357.56
2023-01-18T12:36:47.203Z,96348.91
2023-01-18T12:39:52.344Z,96354.78
2023-01-18T12:42:30.354Z,96362.75
2023-01-18T12:45:18.938Z,96362.34
2023-01-18T12:47:57.670Z,96371.63
2023-01-18T12:50:28.194Z,96381.72
2023-01-18T12:53:03.725Z,96381.03
2023-01-18T12:55:33.904Z,96381.53
2023-01-18T12:58:03.021Z,96378.06
2023-01-18T13:00:47.337Z,96385.97
2023-01-18T13:03:20.002Z,96382.38
2023-01-18T13:06:01.598Z,96380.41
2023-01-18T13:08:59.932Z,96384.97
2023-01-18T13:11:36.040Z,96389.44
2023-01-18T13:14:17.868Z,96394.41
2023-01-18T13:16:48.728Z,96389.06
2023-01-18T13:19:48.546Z,96401.47
2023-01-18T13:22:26.695Z,96409.22
2023-01-18T13:25:24.969Z,96419.81
2023-01-18T13:28:00.915Z,96428.38
2023-01-18T13:30:30.822Z,96430.16
2023-01-18T13:32:57.694Z,96430.16
2023-01-18T13:35:33.767Z,96436.97
2023-01-18T13:38:18.300Z,96441.47
2023-01-18T13:40:55.209Z,96447.38
2023-01-18T13:43:35.327Z,96452.81
2023-01-18T13:46:07.965Z,96456.28
2023-01-18T13:48:55.570Z,96463.94
2023-01-18T13:51:40.660Z,96473.19
2023-01-18T13:54:08.123Z,96471.63
2023-01-18T13:56:36.824Z,96473.25
2023-01-18T13:59:12.317Z,96486.31
2023-01-18T14:01:44.100Z,96481.97
2023-01-18T14:04:24.330Z,96485.34
2023-01-18T14:06:53.186Z,96494.03
2023-01-18T14:09:31.754Z,96498.41
2023-01-18T14:11:59.195Z,96501.13
2023-01-18T14:14:34.552Z,96509.75
2023-01-18T14:17:15.218Z,96516.53
2023-01-18T14:19:47.618Z,96516.47
2023-01-18T14:22:30.510Z,96520.06
2023-01-18T14:25:03.282Z,96521.13
2023-01-18T14:27:36.603Z,96530.50
2023-01-18T14:30:11.318Z,96536.34
2023-01-18T14:32:44.134Z,96543.25
2023-01-18T14:35:22.094Z,96542.31
2023-01-18T14:37:50.442Z,96550.13
2023-01-18T14:40:17.268Z,96552.81
2023-01-18T14:43:00.968Z,96543.25
2023-01-18T14:45:37.452Z,96554.50
2023-01-18T14:48:17.544Z,96551.03
2023-01-18T14:50:47.195Z,96561.50
2023-01-18T14:53:21.796Z,96571.31
2023-01-18T14:56:02.664Z,96573.94
2023-01-18T14:58:34.507Z,96586.16
2023-01-18T15:01:01.376Z,96587.03
2023-01-18T15:03:29.861Z,96591.47
2023-01-18T15:06:02.445Z,96593.22
2023-01-18T15:08:31.788Z,96591.47
2023-01-18T15:10:59.087Z,96602.00
2023-01-18T15:13:29.606Z,96608.19
2023-01-18T15:16:02.303Z,96625.44
2023-01-18T15:18:30.151Z,96620.38
2023-01-18T15:21:00.600Z,96626.47
2023-01-18T15:23:28.486Z,96623.13
2023-01-18T15:25:56.636Z,96639.59
2023-01-18T15:28:30.112Z,96632.91
2023-01-18T15:30:57.729Z,96645.84
2023-01-18T15:33:26.508Z,96647.69
2023-01-18T15:36:01.215Z,96646.91
2023-01-18T15:38:28.281Z,96652.13
2023-01-18T15:41:00.759Z,96666.75
2023-01-18T15:43:42.324Z,96654.75
2023-01-18T15:46:13.008Z,96667.72
2023-01-18T15:48:52.277Z,96675.66
2023-01-18T15:51:22.889Z,96683.44
2023-01-18T15:53:56.654Z,96683.59
2023-01-18T15:56:27.376Z,96684.66
2023-01-18T15:58:56.952Z,96692.47
2023-01-18T16:01:28.251Z,96697.75
2023-01-18T16:04:00.548Z,96697.78
2023-01-18T16:06:29.011Z,96700.38
2023-01-18T16:09:13.892Z,96695.31
2023-01-18T16:11:47.699Z,96701.41
2023-01-18T16:14:27.988Z,96714.41
2023-01-18T16:17:19.498Z,96709.25
2023-01-18T16:19:56.147Z,96710.22
2023-01-18T16:22:31.891Z,96721.44
2023-01-18T16:25:11.694Z,96719.78
2023-01-18T16:27:50.525Z,96720.59
2023-01-18T16:30:33.478Z,96727.50
2023-01-18T16:33:12.356Z,96731.88
2023-01-18T16:35:41.944Z,96740.53
2023-01-18T16:38:12.284Z,96736.19
2023-01-18T16:40:40.671Z,96744.00
2023-01-18T16:43:21.197Z,96749.19
2023-01-18T16:45:50.683Z,96742.34
2023-01-18T16:48:23.341Z,96742.44
2023-01-18T16:50:50.603Z,96752.75
2023-01-18T16:53:17.760Z,96752.78
2023-01-18T16:55:45.274Z,96758.00
2023-01-18T16:58:16.824Z,96768.34
2023-01-18T17:00:58.051Z,96764.03
2023-01-18T17:03:25.164Z,96772.66
2023-01-18T17:05:52.168Z,96778.69
2023-01-18T17:08:19.523Z,96775.25
2023-01-18T17:10:48.699Z,96790.69
2023-01-18T17:13:16.107Z,96794.13
2023-01-18T17:15:45.423Z,96799.28
2023-01-18T17:18:24.166Z,96809.63
2023-01-18T17:20:50.836Z,96807.94
2023-01-18T17:23:17.857Z,96814.84
2023-01-18T17:25:44.869Z,96816.56
2023-01-18T17:28:13.982Z,96825.25
2023-01-18T17:30:42.674Z,96827.06
2023-01-18T17:33:17.294Z,96822.81
2023-01-18T17:35:44.295Z,96834.84
2023-01-18T17:38:17.252Z,96839.13
2023-01-18T17:40:49.385Z,96839.16
2023-01-18T17:43:28.418Z,96843.50
2023-01-18T17:46:01.855Z,96840.03
2023-01-18T17:48:30.019Z,96840.94
2023-01-18T17:50:56.836Z,96842.66
2023-01-18T17:53:23.450Z,96851.28
2023-01-18T17:55:50.154Z,96853.84
2023-01-18T17:58:16.695Z,96856.44
2023-01-18T18:00:43.372Z,96859.03
2023-01-18T18:03:10.374Z,96862.44
2023-01-18T18:05:37.069Z,96856.47
2023-01-18T18:08:03.859Z,96870.22
2023-01-18T18:10:31.141Z,96871.91
2023-01-18T18:12:58.211Z,96865.94
2023-01-18T18:15:25.587Z,96875.41
2023-01-18T18:17:52.272Z,96882.28
2023-01-18T18:20:20.235Z,96887.47
2023-01-18T18:22:47.948Z,96887.44
2023-01-18T18:25:14.830Z,96890.06
2023-01-18T18:27:45.862Z,96895.22
2023-01-18T18:30:13.583Z,96902.06
2023-01-18T18:32:40.248Z,96902.09
2023-01-18T18:35:23.049Z,96896.94
2023-01-18T18:37:51.019Z,96910.66
2023-01-18T18:40:17.847Z,96910.69
2023-01-18T18:42:49.887Z,96917.53
2023-01-18T18:45:27.091Z,96921.00
2023-01-18T18:47:53.709Z,96922.72
2023-01-18T18:50:20.535Z,96931.28
2023-01-18T18:52:47.326Z,96936.44
2023-01-18T18:55:14.346Z,96930.44
2023-01-18T18:57:40.990Z,96948.47
2023-01-18T19:00:08.468Z,96951.88
2023-01-18T19:02:35.380Z,96952.72
2023-01-18T19:05:02.451Z,96956.13
2023-01-18T19:07:29.402Z,96962.97
2023-01-18T19:09:56.075Z,96974.09
2023-01-18T19:12:22.764Z,96967.22
2023-01-18T19:14:49.477Z,96974.94
2023-01-18T19:17:28.864Z,96975.78
2023-01-18T19:19:56.561Z,96979.22
2023-01-18T19:22:23.625Z,96976.63
2023-01-18T19:24:50.247Z,96977.50
2023-01-18T19:27:17.045Z,96986.09
2023-01-18T19:29:43.770Z,96980.09
2023-01-18T19:32:10.540Z,96986.91
2023-01-18T19:34:38.736Z,96988.66
2023-01-18T19:37:05.828Z,96992.09
2023-01-18T19:39:35.162Z,97000.63
2023-01-18T19:42:02.494Z,96991.19
2023-01-18T19:44:29.351Z,96996.31
2023-01-18T19:46:57.255Z,96997.19
2023-01-18T19:49:26.569Z,97007.47
2023-01-18T19:51:54.802Z,97003.16
2023-01-18T19:54:22.131Z,97005.72
2023-01-18T19:56:49.106Z,97004.88
2023-01-18T19:59:16.003Z,97009.13
2023-01-18T20:01:43.404Z,97010.84
2023-01-18T20:04:11.007Z,97006.53
2023-01-18T20:06:38.776Z,97009.09
2023-01-18T20:09:17.830Z,97008.28
2023-01-18T20:11:45.564Z,97004.84
2023-01-18T20:14:12.444Z,97006.56
2023-01-18T20:16:40.080Z,97007.41
2023-01-18T20:19:07.053Z,97007.41
2023-01-18T20:21:33.690Z,97013.41
2023-01-18T20:24:01.114Z,97014.28
2023-01-18T20:26:36.492Z,97016.88
2023-01-18T20:29:07.079Z,97029.81
2023-01-18T20:31:36.253Z,97025.53
2023-01-18T20:34:03.353Z,97029.81
2023-01-18T20:36:29.997Z,97026.38
2023-01-18T20:38:56.824Z,97038.34
2023-01-18T20:41:23.648Z,97039.19
2023-01-18T20:43:50.306Z,97039.19
2023-01-18T20:46:17.001Z,97031.44
2023-01-18T20:48:44.115Z,97042.63
2023-01-18T20:51:10.732Z,97037.50
2023-01-18T20:53:40.846Z,97036.63
2023-01-18T20:56:17.049Z,97043.47
2023-01-18T20:58:54.546Z,97036.66
2023-01-18T21:01:21.745Z,97036.66
2023-01-18T21:03:55.383Z,97034.13
2023-01-18T21:06:21.971Z,97041.91
2023-01-18T21:08:52.668Z,97046.22
2023-01-18T21:11:23.033Z,97041.94
2023-01-18T21:13:51.468Z,97053.94
2023-01-18T21:16:18.473Z,97067.66
2023-01-18T21:18:45.174Z,97062.53
2023-01-18T21:21:12.972Z,97060.00
2023-01-18T21:23:39.769Z,97055.72
2023-01-18T21:26:11.183Z,97064.28
2023-01-18T21:28:37.956Z,97063.41
2023-01-18T21:31:05.407Z,97074.56
2023-01-18T21:33:32.141Z,97069.41
2023-01-18T21:36:12.214Z,97069.41
2023-01-18T21:38:39.058Z,97075.44
2023-01-18T21:41:24.460Z,97081.44
2023-01-18T21:44:11.555Z,97083.19
2023-01-18T21:46:44.177Z,97082.25
2023-01-18T21:49:42.991Z,97085.69
2023-01-18T21:52:34.355Z,97084.81
2023-01-18T21:55:00.943Z,97089.97
2023-01-18T21:57:27.471Z,97101.94
2023-01-18T21:59:54.204Z,97098.47
2023-01-18T22:02:22.640Z,97095.03
2023-01-18T22:05:03.428Z,97098.47
2023-01-18T22:07:33.239Z,97115.63
2023-01-18T22:10:05.745Z,97107.94
2023-01-18T22:12:35.761Z,97120.84
2023-01-18T22:15:04.598Z,97123.44
2023-01-18T22:17:31.592Z,97108.84
2023-01-18T22:19:58.542Z,97118.28
2023-01-18T22:22:25.156Z,97132.88
2023-01-18T22:24:51.997Z,97129.41
2023-01-18T22:27:18.602Z,97123.44
2023-01-18T22:29:45.181Z,97130.34
2023-01-18T22:32:12.138Z,97138.94
2023-01-18T22:34:38.855Z,97144.84
2023-01-18T22:37:05.902Z,97141.41
2023-01-18T22:39:32.644Z,97149.16
2023-01-18T22:41:59.328Z,97136.31
2023-01-18T22:44:25.964Z,97150.00
2023-01-18T22:46:52.916Z,97144.00
2023-01-18T22:49:19.746Z,97144.84
2023-01-18T22:51:46.547Z,97148.28
2023-01-18T22:54:13.359Z,97148.28
2023-01-18T22:56:39.939Z,97155.09
2023-01-18T22:59:06.511Z,97147.47
2023-01-18T23:01:33.722Z,97138.88
2023-01-18T23:04:03.386Z,97140.59
2023-01-18T23:06:42.533Z,97144.91
2023-01-18T23:09:10.431Z,97140.59
2023-01-18T23:11:37.822Z,97138.06
2023-01-18T23:14:23.666Z,97143.13
2023-01-18T23:17:08.764Z,97133.63
2023-01-18T23:19:35.853Z,97138.72
2023-01-18T23:22:07.395Z,97132.69
2023-01-18T23:24:35.824Z,97135.16
2023-01-18T23:27:04.017Z,97136.06
2023-01-18T23:29:30.781Z,97131.78
2023-01-18T23:31:58.440Z,97130.03
2023-01-18T23:34:25.841Z,97136.00
2023-01-18T23:36:52.890Z,97142.00
2023-01-18T23:39:38.206Z,97148.88
2023-01-18T23:42:23.297Z,97137.75
2023-01-18T23:45:08.625Z,97151.50
2023-01-18T23:47:53.931Z,97143.78
2023-01-18T23:50:39.525Z,97147.25
2023-01-18T23:53:24.495Z,97147.31
2023-01-18T23:55:53.066Z,97149.81
2023-01-18T23:58:19.777Z,97154.97
